Time;durP1;ratioP1;P1;durP2;ratioP2;P2;SDS_P1;SDS_P2;PMS_P1;PMS_P2;Temp;Humidity;BMP_temperature;BMP_pressure;BME280_temperature;BME280_humidity;BME280_pressure;Samples;Min_cycle;Max_cycle;Signal;HPM_P1;HPM_P2
2023/08/15 00:00:37;;;;;;;9.23;4.45;;;;;;;;;;5133446;27;20046;-78
2023/08/15 00:03:03;;;;;;;8.82;4.70;;;;;;;;;;5135273;27;20035;-78
2023/08/15 00:05:30;;;;;;;12.38;4.95;;;;;;;;;;5137424;27;20088;-78
2023/08/15 00:07:56;;;;;;;12.40;5.88;;;;;;;;;;5129891;27;20511;-79
2023/08/15 00:10:22;;;;;;;;;;;;;;;;;;5116574;27;20515;-78
2023/08/15 00:12:48;;;;;;;9.75;4.18;;;;;;;;;;5136682;27;19923;-78
2023/08/15 00:15:14;;;;;;;9.68;4.63;;;;;;;;;;5113995;27;20031;-78
2023/08/15 00:17:40;;;;;;;9.23;4.97;;;;;;;;;;5114253;27;20687;-78
2023/08/15 00:20:07;;;;;;;13.63;5.18;;;;;;;;;;5131515;27;20450;-78
2023/08/15 00:22:33;;;;;;;8.63;5.03;;;;;;;;;;5124192;27;20109;-78
2023/08/15 00:24:59;;;;;;;8.95;4.88;;;;;;;;;;5131834;27;20039;-78
2023/08/15 00:27:25;;;;;;;;;;;;;;;;;;5113779;27;20043;-78
2023/08/15 00:29:51;;;;;;;13.00;4.03;;;;;;;;;;5130392;27;19942;-78
2023/08/15 00:32:17;;;;;;;7.45;4.25;;;;;;;;;;5114419;27;20047;-78
2023/08/15 00:34:43;;;;;;;;;;;;;;;;;;5100300;27;20075;-78
2023/08/15 00:37:09;;;;;;;3.00;2.08;;;;;;;;;;5103664;27;20019;-78
2023/08/15 00:39:35;;;;;;;4.32;2.60;;;;;;;;;;5130509;27;20445;-78
2023/08/15 00:42:01;;;;;;;;;;;;;;;;;;5132178;27;20392;-78
2023/08/15 00:44:27;;;;;;;11.32;4.95;;;;;;;;;;5130317;27;19919;-78
2023/08/15 00:46:52;;;;;;;;;;;;;;;;;;5115431;27;20373;-78
2023/08/15 00:49:19;;;;;;;15.82;7.45;;;;;;;;;;5130971;27;19926;-78
2023/08/15 00:51:46;;;;;;;13.27;6.60;;;;;;;;;;5113974;28;20105;-78
2023/08/15 00:54:13;;;;;;;12.60;6.25;;;;;;;;;;5131605;28;20062;-78
2023/08/15 00:56:42;;;;;;;12.38;6.68;;;;;;;;;;5131180;28;20096;-78
2023/08/15 00:59:08;;;;;;;19.50;7.93;;;;;;;;;;5090881;28;20082;-78
2023/08/15 01:01:36;;;;;;;19.25;10.55;;;;;;;;;;5092752;28;20117;-78
2023/08/15 01:04:02;;;;;;;14.57;9.38;;;;;;;;;;5101351;28;20070;-78
2023/08/15 01:06:28;;;;;;;17.33;8.98;;;;;;;;;;5116703;28;20087;-78
2023/08/15 01:08:55;;;;;;;;;;;;;;;;;;5127810;28;20044;-78
2023/08/15 01:11:21;;;;;;;18.27;9.95;;;;;;;;;;5131173;28;20002;-78
2023/08/15 01:14:00;;;;;;;19.70;9.60;;;;;;;;;;5113655;28;20330;-78
2023/08/15 01:16:28;;;;;;;19.45;10.07;;;;;;;;;;5101671;28;20048;-78
2023/08/15 01:18:59;;;;;;;16.67;10.32;;;;;;;;;;5111172;28;20055;-78
2023/08/15 01:21:28;;;;;;;20.90;10.35;;;;;;;;;;5112186;28;20137;-78
2023/08/15 01:23:56;;;;;;;19.30;10.55;;;;;;;;;;5111210;28;20096;-78
2023/08/15 01:26:23;;;;;;;20.58;11.07;;;;;;;;;;5131171;28;20488;-78
2023/08/15 01:28:49;;;;;;;22.08;10.95;;;;;;;;;;5130756;28;20051;-78
2023/08/15 01:31:19;;;;;;;17.38;10.90;;;;;;;;;;5130320;27;20130;-78
2023/08/15 01:33:57;;;;;;;18.00;10.13;;;;;;;;;;5125336;27;20043;-78
2023/08/15 01:36:26;;;;;;;18.98;10.50;;;;;;;;;;5135149;27;20429;-79
2023/08/15 01:38:56;;;;;;;20.48;11.73;;;;;;;;;;5118114;27;20051;-78
2023/08/15 01:41:24;;;;;;;16.17;8.75;;;;;;;;;;5115500;27;20095;-78
2023/08/15 01:43:51;;;;;;;22.45;10.82;;;;;;;;;;5104331;28;20048;-78
2023/08/15 01:46:17;;;;;;;18.83;11.25;;;;;;;;;;5114413;27;20051;-78
2023/08/15 01:48:43;;;;;;;21.42;11.52;;;;;;;;;;5160730;27;20377;-78
2023/08/15 01:51:10;;;;;;;20.45;10.93;;;;;;;;;;5127270;27;20063;-77
2023/08/15 01:53:36;;;;;;;19.60;11.38;;;;;;;;;;5112882;28;20091;-78
2023/08/15 01:56:03;;;;;;;20.73;10.57;;;;;;;;;;5114855;28;20134;-78
2023/08/15 01:58:29;;;;;;;23.42;11.63;;;;;;;;;;5113165;28;20058;-78
2023/08/15 02:00:55;;;;;;;19.80;12.00;;;;;;;;;;5096708;28;20134;-78
2023/08/15 02:03:21;;;;;;;;;;;;;;;;;;5114898;28;20068;-78
2023/08/15 02:05:47;;;;;;;24.67;12.20;;;;;;;;;;5114201;28;20020;-78
2023/08/15 02:08:13;;;;;;;19.17;11.98;;;;;;;;;;5097530;28;20043;-78
2023/08/15 02:10:39;;;;;;;17.15;9.80;;;;;;;;;;5088760;28;20468;-78
2023/08/15 02:13:05;;;;;;;;;;;;;;;;;;5113599;28;20523;-78
2023/08/15 02:15:31;;;;;;;19.98;12.25;;;;;;;;;;5119227;27;19931;-78
2023/08/15 02:17:57;;;;;;;21.45;11.35;;;;;;;;;;5134854;27;20154;-78
2023/08/15 02:20:23;;;;;;;;;;;;;;;;;;5116589;27;20130;-79
2023/08/15 02:22:49;;;;;;;21.90;12.98;;;;;;;;;;5129086;27;19982;-79
2023/08/15 02:25:15;;;;;;;20.70;12.65;;;;;;;;;;5134444;27;20039;-78
2023/08/15 02:27:41;;;;;;;10.23;7.40;;;;;;;;;;5106267;28;20080;-78
2023/08/15 02:30:08;;;;;;;;;;;;;;;;;;5113685;28;20066;-78
2023/08/15 02:32:35;;;;;;;17.63;9.50;;;;;;;;;;5107769;27;19927;-78
2023/08/15 02:35:01;;;;;;;17.23;10.77;;;;;;;;;;5115480;27;20075;-78
2023/08/15 02:37:27;;;;;;;15.68;9.60;;;;;;;;;;5125367;27;20047;-79
2023/08/15 02:39:53;;;;;;;13.10;9.23;;;;;;;;;;5113455;28;20047;-78
2023/08/15 02:42:19;;;;;;;;;;;;;;;;;;5096739;28;20161;-78
2023/08/15 02:44:45;;;;;;;13.75;9.55;;;;;;;;;;5132282;27;20010;-78
2023/08/15 02:47:11;;;;;;;12.43;8.73;;;;;;;;;;5117463;27;20051;-78
2023/08/15 02:49:38;;;;;;;;;;;;;;;;;;5096521;28;20434;-78
2023/08/15 02:52:05;;;;;;;17.25;11.80;;;;;;;;;;5128764;27;19919;-78
2023/08/15 02:54:31;;;;;;;14.30;9.40;;;;;;;;;;5132940;27;20051;-78
2023/08/15 02:56:57;;;;;;;20.83;13.43;;;;;;;;;;5133469;27;20169;-78
2023/08/15 02:59:23;;;;;;;;;;;;;;;;;;5105287;28;20051;-78
2023/08/15 03:01:49;;;;;;;21.67;13.82;;;;;;;;;;5112869;28;19923;-78
2023/08/15 03:04:15;;;;;;;17.98;10.45;;;;;;;;;;5113203;28;20130;-78
2023/08/15 03:06:42;;;;;;;;;;;;;;;;;;5096095;28;20048;-78
2023/08/15 03:09:08;;;;;;;21.20;13.27;;;;;;;;;;5165866;27;19923;-78
2023/08/15 03:11:34;;;;;;;23.15;13.85;;;;;;;;;;5095174;28;20047;-79
2023/08/15 03:14:00;;;;;;;;;;;;;;;;;;5112733;28;20048;-78
2023/08/15 03:16:27;;;;;;;20.70;13.88;;;;;;;;;;5112769;28;19972;-78
2023/08/15 03:18:53;;;;;;;18.77;11.80;;;;;;;;;;5112727;28;20044;-77
2023/08/15 03:21:20;;;;;;;23.23;13.98;;;;;;;;;;5112659;28;20545;-78
2023/08/15 03:23:46;;;;;;;13.15;9.15;;;;;;;;;;5113134;27;20088;-78
2023/08/15 03:26:12;;;;;;;;;;;;;;;;;;5130723;27;20084;-78
2023/08/15 03:28:38;;;;;;;17.60;11.32;;;;;;;;;;5114710;27;19973;-78
2023/08/15 03:31:05;;;;;;;17.52;10.20;;;;;;;;;;5109447;27;20050;-78
2023/08/15 03:33:31;;;;;;;19.83;13.02;;;;;;;;;;5115913;27;20039;-79
2023/08/15 03:35:57;;;;;;;21.20;13.70;;;;;;;;;;5133128;27;20043;-78
2023/08/15 03:38:23;;;;;;;;;;;;;;;;;;5106797;28;20425;-78
2023/08/15 03:40:50;;;;;;;21.42;11.95;;;;;;;;;;5111645;28;20008;-78
2023/08/15 03:43:16;;;;;;;10.13;6.13;;;;;;;;;;5077611;28;20370;-78
2023/08/15 03:45:42;;;;;;;15.65;10.80;;;;;;;;;;5117876;27;20092;-78
2023/08/15 03:48:08;;;;;;;;;;;;;;;;;;5119566;27;20059;-78
2023/08/15 03:50:37;;;;;;;26.38;16.23;;;;;;;;;;5111977;28;19919;-79
2023/08/15 03:53:04;;;;;;;25.35;14.77;;;;;;;;;;5088486;27;20134;-78
2023/08/15 03:55:31;;;;;;;25.20;15.32;;;;;;;;;;5131704;27;20051;-78
2023/08/15 03:57:57;;;;;;;25.73;14.48;;;;;;;;;;5105567;28;20079;-78
2023/08/15 04:00:24;;;;;;;20.95;15.38;;;;;;;;;;5111715;28;20056;-78
2023/08/15 04:02:50;;;;;;;22.65;14.95;;;;;;;;;;5111563;28;20488;-78
2023/08/15 04:05:17;;;;;;;23.02;14.63;;;;;;;;;;5095188;28;20043;-78
2023/08/15 04:07:44;;;;;;;26.50;16.90;;;;;;;;;;5116086;27;20040;-78
2023/08/15 04:10:13;;;;;;;26.15;16.35;;;;;;;;;;5094818;28;20046;-78
2023/08/15 04:12:40;;;;;;;22.63;15.13;;;;;;;;;;5145559;27;20134;-78
2023/08/15 04:15:06;;;;;;;24.60;15.90;;;;;;;;;;5111506;28;20127;-78
2023/08/15 04:17:32;;;;;;;22.35;15.57;;;;;;;;;;5115671;27;20511;-78
2023/08/15 04:19:58;;;;;;;;;;;;;;;;;;5115086;27;20054;-79
2023/08/15 04:22:24;;;;;;;27.77;16.98;;;;;;;;;;5128164;27;20276;-78
2023/08/15 04:24:50;;;;;;;;;;;;;;;;;;5111393;28;20055;-79
2023/08/15 04:27:16;;;;;;;30.75;18.10;;;;;;;;;;5094448;28;20361;-78
2023/08/15 04:29:42;;;;;;;;;;;;;;;;;;5110473;28;20083;-78
2023/08/15 04:32:08;;;;;;;28.40;17.77;;;;;;;;;;5111909;28;20347;-79
2023/08/15 04:34:34;;;;;;;;;;;;;;;;;;5123735;27;20043;-78
2023/08/15 04:37:00;;;;;;;23.08;14.60;;;;;;;;;;5121065;27;20375;-79
2023/08/15 04:39:27;;;;;;;;;;;;;;;;;;5111680;28;20044;-78
2023/08/15 04:41:53;;;;;;;22.77;14.65;;;;;;;;;;5093884;28;19927;-78
2023/08/15 04:44:19;;;;;;;26.13;13.98;;;;;;;;;;5111268;28;20047;-78
2023/08/15 04:46:45;;;;;;;;;;;;;;;;;;5077201;28;20135;-79
2023/08/15 04:49:11;;;;;;;21.48;13.45;;;;;;;;;;5111551;28;19993;-79
2023/08/15 04:51:37;;;;;;;25.33;13.93;;;;;;;;;;5111514;28;20134;-79
2023/08/15 04:54:03;;;;;;;22.70;13.73;;;;;;;;;;5131118;27;20047;-79
2023/08/15 04:56:29;;;;;;;23.95;13.45;;;;;;;;;;5114899;28;20395;-79
2023/08/15 04:58:55;;;;;;;;;;;;;;;;;;5114180;28;20103;-79
2023/08/15 05:01:21;;;;;;;24.27;13.85;;;;;;;;;;5131117;28;20265;-79
2023/08/15 05:03:47;;;;;;;22.25;13.27;;;;;;;;;;5131531;27;20101;-79
2023/08/15 05:06:13;;;;;;;;;;;;;;;;;;5110371;28;20040;-78
2023/08/15 05:08:39;;;;;;;24.50;14.32;;;;;;;;;;5115703;27;19920;-80
2023/08/15 05:11:05;;;;;;;;;;;;;;;;;;5115750;28;20043;-79
2023/08/15 05:13:31;;;;;;;24.65;14.27;;;;;;;;;;5097762;28;19920;-79
2023/08/15 05:15:57;;;;;;;25.40;14.50;;;;;;;;;;5107643;27;20393;-79
2023/08/15 05:18:23;;;;;;;;;;;;;;;;;;5136456;27;20053;-79
2023/08/15 05:20:49;;;;;;;24.90;15.52;;;;;;;;;;5135218;27;20337;-79
2023/08/15 05:23:15;;;;;;;30.88;16.00;;;;;;;;;;5124396;27;20059;-79
2023/08/15 05:25:43;;;;;;;25.40;15.15;;;;;;;;;;5114646;28;20055;-79
2023/08/15 05:28:09;;;;;;;23.55;14.93;;;;;;;;;;5106133;27;20504;-79
2023/08/15 05:30:36;;;;;;;23.88;15.48;;;;;;;;;;5134098;27;20062;-78
2023/08/15 05:33:02;;;;;;;23.85;14.70;;;;;;;;;;5135257;27;20135;-79
2023/08/15 05:35:28;;;;;;;25.65;16.30;;;;;;;;;;5118671;27;20388;-79
2023/08/15 05:37:54;;;;;;;22.92;15.05;;;;;;;;;;5134781;27;20043;-79
2023/08/15 05:40:21;;;;;;;24.85;14.68;;;;;;;;;;5135110;27;20050;-79
2023/08/15 05:42:47;;;;;;;29.33;15.48;;;;;;;;;;5117460;27;20054;-79
2023/08/15 05:45:13;;;;;;;25.23;14.93;;;;;;;;;;5134426;27;20050;-79
2023/08/15 05:47:39;;;;;;;26.95;15.18;;;;;;;;;;5118045;27;20050;-78
2023/08/15 05:50:05;;;;;;;;;;;;;;;;;;5135264;27;20049;-78
2023/08/15 05:52:31;;;;;;;29.25;15.10;;;;;;;;;;5134509;27;20005;-79
2023/08/15 05:54:57;;;;;;;;;;;;;;;;;;5100414;27;20116;-79
2023/08/15 05:57:23;;;;;;;21.45;12.48;;;;;;;;;;5117605;27;19919;-79
2023/08/15 05:59:49;;;;;;;23.52;12.85;;;;;;;;;;5116535;27;20043;-79
2023/08/15 06:02:15;;;;;;;;;;;;;;;;;;5118534;27;20480;-79
2023/08/15 06:04:42;;;;;;;19.20;11.02;;;;;;;;;;5135049;27;19926;-78
2023/08/15 06:07:08;;;;;;;;;;;;;;;;;;5119177;27;20086;-69
2023/08/15 06:09:34;;;;;;;18.85;11.13;;;;;;;;;;5124689;27;19969;-68
2023/08/15 06:12:00;;;;;;;25.25;11.90;;;;;;;;;;5122204;27;20159;-71
2023/08/15 06:14:26;;;;;;;21.58;12.43;;;;;;;;;;5130967;27;20050;-71
2023/08/15 06:16:52;;;;;;;25.90;12.18;;;;;;;;;;5114814;28;20048;-72
2023/08/15 06:19:18;;;;;;;20.05;12.48;;;;;;;;;;5131578;27;20046;-83
2023/08/15 06:21:45;;;;;;;21.20;12.13;;;;;;;;;;5098140;27;20442;-77
2023/08/15 06:24:11;;;;;;;21.88;11.95;;;;;;;;;;5096987;28;20378;-76
2023/08/15 06:26:38;;;;;;;24.88;12.25;;;;;;;;;;5131829;27;20503;-78
2023/08/15 06:29:05;;;;;;;22.02;12.35;;;;;;;;;;5123123;27;20504;-75
2023/08/15 06:31:31;;;;;;;22.55;12.27;;;;;;;;;;5128907;27;20094;-77
2023/08/15 06:33:57;;;;;;;19.00;11.63;;;;;;;;;;5133890;27;20043;-77
2023/08/15 06:36:23;;;;;;;;;;;;;;;;;;5127856;27;20047;-77
2023/08/15 06:38:50;;;;;;;20.27;10.00;;;;;;;;;;5113405;28;20270;-77
2023/08/15 06:41:16;;;;;;;17.25;10.68;;;;;;;;;;5130750;27;20050;-77
2023/08/15 06:43:44;;;;;;;21.27;10.25;;;;;;;;;;5106985;27;20057;-77
2023/08/15 06:46:10;;;;;;;22.90;9.93;;;;;;;;;;5094235;28;20108;-77
2023/08/15 06:48:36;;;;;;;19.38;9.93;;;;;;;;;;5113066;28;20050;-77
2023/08/15 06:51:03;;;;;;;;;;;;;;;;;;5096706;28;20047;-77
2023/08/15 06:53:29;;;;;;;17.70;9.13;;;;;;;;;;5117991;27;20363;-76
2023/08/15 06:55:55;;;;;;;17.52;9.05;;;;;;;;;;5133530;27;20054;-77
2023/08/15 06:58:21;;;;;;;;;;;;;;;;;;5125388;27;20035;-77
2023/08/15 07:00:47;;;;;;;17.73;8.03;;;;;;;;;;5133271;27;19926;-77
2023/08/15 07:03:15;;;;;;;17.00;8.85;;;;;;;;;;5116580;27;20380;-77
2023/08/15 07:05:41;;;;;;;18.17;7.82;;;;;;;;;;5109379;28;20484;-77
2023/08/15 07:08:08;;;;;;;17.05;6.93;;;;;;;;;;5116395;27;20565;-77
2023/08/15 07:10:37;;;;;;;16.85;7.70;;;;;;;;;;5116136;27;20039;-76
2023/08/15 07:13:03;;;;;;;19.08;7.60;;;;;;;;;;5131857;27;20046;-76
2023/08/15 07:15:29;;;;;;;14.80;7.07;;;;;;;;;;5133169;27;20130;-76
2023/08/15 07:17:55;;;;;;;19.80;6.75;;;;;;;;;;5106280;27;20391;-76
2023/08/15 07:20:21;;;;;;;18.00;7.95;;;;;;;;;;5128488;27;20043;-75
2023/08/15 07:22:47;;;;;;;;;;;;;;;;;;5123420;27;20086;-76
2023/08/15 07:25:13;;;;;;;20.30;6.45;;;;;;;;;;5130019;27;19920;-76
2023/08/15 07:27:39;;;;;;;14.77;6.60;;;;;;;;;;5129987;27;20035;-76
2023/08/15 07:30:05;;;;;;;;;;;;;;;;;;5098701;28;20062;-77
2023/08/15 07:32:32;;;;;;;13.25;5.32;;;;;;;;;;5121040;27;19920;-76
2023/08/15 07:34:58;;;;;;;14.57;5.30;;;;;;;;;;5095019;28;20568;-76
2023/08/15 07:37:24;;;;;;;;;;;;;;;;;;5112858;28;20373;-76
2023/08/15 07:39:56;;;;;;;16.40;5.90;;;;;;;;;;5119727;27;19926;-75
2023/08/15 07:42:22;;;;;;;17.35;5.55;;;;;;;;;;5116171;27;20046;-77
2023/08/15 07:44:48;;;;;;;;;;;;;;;;;;5134896;27;20210;-76
2023/08/15 07:47:14;;;;;;;11.25;5.97;;;;;;;;;;5110685;27;20080;-77
2023/08/15 07:49:40;;;;;;;;;;;;;;;;;;5114514;27;20480;-77
2023/08/15 07:52:07;;;;;;;14.05;5.20;;;;;;;;;;5112642;27;19926;-77
2023/08/15 07:54:33;;;;;;;15.88;5.65;;;;;;;;;;5103515;28;20067;-77
2023/08/15 07:56:59;;;;;;;13.05;5.72;;;;;;;;;;5105446;27;20452;-78
2023/08/15 07:59:25;;;;;;;;;;;;;;;;;;5098939;27;20047;-77
2023/08/15 08:01:51;;;;;;;14.57;5.18;;;;;;;;;;5115514;27;20372;-80
2023/08/15 08:04:19;;;;;;;19.67;5.85;;;;;;;;;;5115242;27;20043;-80
2023/08/15 08:06:45;;;;;;;13.15;5.43;;;;;;;;;;5111739;28;20047;-77
2023/08/15 08:09:11;;;;;;;15.15;5.72;;;;;;;;;;5112652;27;20039;-77
2023/08/15 08:11:38;;;;;;;19.55;4.88;;;;;;;;;;5115307;27;20047;-77
2023/08/15 08:14:04;;;;;;;11.75;4.47;;;;;;;;;;5124355;27;20039;-77
2023/08/15 08:16:30;;;;;;;18.02;5.05;;;;;;;;;;5131646;27;20077;-77
2023/08/15 08:18:56;;;;;;;12.20;4.68;;;;;;;;;;5132055;27;20047;-77
2023/08/15 08:21:22;;;;;;;11.48;4.00;;;;;;;;;;5107224;27;20123;-77
2023/08/15 08:23:48;;;;;;;14.00;4.70;;;;;;;;;;5122009;27;20557;-77
2023/08/15 08:26:14;;;;;;;17.05;4.80;;;;;;;;;;5128953;27;20062;-77
2023/08/15 08:28:41;;;;;;;11.25;3.85;;;;;;;;;;5129888;27;20043;-76
2023/08/15 08:31:07;;;;;;;11.20;4.20;;;;;;;;;;5100710;28;20082;-76
2023/08/15 08:33:33;;;;;;;11.35;3.88;;;;;;;;;;5124093;27;20054;-76
2023/08/15 08:35:59;;;;;;;12.65;4.32;;;;;;;;;;5131694;27;20430;-76
2023/08/15 08:38:25;;;;;;;13.07;4.45;;;;;;;;;;5129560;27;20130;-76
2023/08/15 08:40:54;;;;;;;10.93;5.03;;;;;;;;;;5121941;27;20064;-76
2023/08/15 08:43:21;;;;;;;14.85;4.93;;;;;;;;;;5111921;27;20396;-79
2023/08/15 08:45:50;;;;;;;13.55;5.97;;;;;;;;;;5125129;27;20437;-80
2023/08/15 08:48:17;;;;;;;11.35;5.35;;;;;;;;;;5128217;27;20047;-80
2023/08/15 08:50:44;;;;;;;11.75;5.95;;;;;;;;;;5114285;28;20046;-80
2023/08/15 08:53:12;;;;;;;13.47;6.70;;;;;;;;;;5120269;27;20301;-75
2023/08/15 08:55:40;;;;;;;12.75;6.50;;;;;;;;;;5128979;27;20661;-75
2023/08/15 08:58:06;;;;;;;12.45;6.82;;;;;;;;;;5124999;27;20040;-75
2023/08/15 09:00:37;;;;;;;14.75;7.15;;;;;;;;;;5134444;27;20030;-75
2023/08/15 09:03:03;;;;;;;13.93;7.30;;;;;;;;;;5135141;27;20046;-75
2023/08/15 09:05:29;;;;;;;14.88;7.60;;;;;;;;;;5124826;27;20090;-75
2023/08/15 09:07:55;;;;;;;14.52;7.25;;;;;;;;;;5127179;27;20051;-75
2023/08/15 09:10:22;;;;;;;15.23;6.82;;;;;;;;;;5127004;27;20053;-75
2023/08/15 09:12:48;;;;;;;14.40;6.72;;;;;;;;;;5125036;27;20503;-79
2023/08/15 09:15:15;;;;;;;16.60;7.30;;;;;;;;;;5129623;27;20049;-78
2023/08/15 09:17:41;;;;;;;14.00;6.90;;;;;;;;;;5123079;27;20075;-78
2023/08/15 09:20:10;;;;;;;12.43;6.32;;;;;;;;;;5125797;27;20039;-79
2023/08/15 09:22:37;;;;;;;16.63;6.68;;;;;;;;;;5147692;27;20395;-78
2023/08/15 09:25:04;;;;;;;12.90;6.22;;;;;;;;;;5134062;27;20129;-79
2023/08/15 09:27:30;;;;;;;16.38;6.63;;;;;;;;;;5113703;27;20079;-75
2023/08/15 09:29:56;;;;;;;13.73;6.90;;;;;;;;;;5117252;28;20043;-75
2023/08/15 09:32:22;;;;;;;15.32;6.25;;;;;;;;;;5116324;28;20047;-75
2023/08/15 09:34:48;;;;;;;10.73;5.88;;;;;;;;;;5149619;27;20039;-76
2023/08/15 09:37:14;;;;;;;8.93;4.03;;;;;;;;;;5114909;27;20054;-80
2023/08/15 09:39:41;;;;;;;9.80;4.00;;;;;;;;;;5116382;27;20500;-79
2023/08/15 09:42:07;;;;;;;10.55;3.33;;;;;;;;;;5093623;28;20054;-79
2023/08/15 09:44:36;;;;;;;9.98;3.92;;;;;;;;;;5126635;27;20053;-80
2023/08/15 09:47:02;;;;;;;9.10;3.47;;;;;;;;;;5118109;27;20506;-79
2023/08/15 09:49:28;;;;;;;10.60;3.20;;;;;;;;;;5116758;27;20053;-77
2023/08/15 09:51:55;;;;;;;9.27;2.70;;;;;;;;;;5142510;27;20512;-75
2023/08/15 09:54:21;;;;;;;10.80;2.90;;;;;;;;;;5120957;27;20104;-76
2023/08/15 09:56:48;;;;;;;8.80;3.05;;;;;;;;;;5116668;27;20043;-75
2023/08/15 09:59:14;;;;;;;8.57;3.25;;;;;;;;;;5116260;27;20063;-75
2023/08/15 10:01:41;;;;;;;8.00;2.90;;;;;;;;;;5125092;27;20046;-74
2023/08/15 10:04:11;;;;;;;9.98;3.20;;;;;;;;;;5130733;27;20100;-74
2023/08/15 10:06:38;;;;;;;9.98;3.45;;;;;;;;;;5134303;27;20082;-75
2023/08/15 10:09:05;;;;;;;13.45;3.60;;;;;;;;;;5134032;27;20031;-75
2023/08/15 10:11:34;;;;;;;8.98;3.05;;;;;;;;;;5133612;27;20668;-75
2023/08/15 10:14:01;;;;;;;10.30;3.45;;;;;;;;;;5126884;27;20086;-74
2023/08/15 10:16:27;;;;;;;9.98;2.90;;;;;;;;;;5105450;27;20043;-74
2023/08/15 10:18:54;;;;;;;9.77;2.97;;;;;;;;;;5117555;27;20089;-74
2023/08/15 10:21:20;;;;;;;9.65;2.90;;;;;;;;;;5120291;27;20054;-75
2023/08/15 10:23:46;;;;;;;10.73;3.05;;;;;;;;;;5133764;27;20047;-75
2023/08/15 10:26:13;;;;;;;10.05;3.30;;;;;;;;;;5104562;28;20181;-74
2023/08/15 10:28:40;;;;;;;10.50;3.22;;;;;;;;;;5112494;28;20511;-75
2023/08/15 10:31:08;;;;;;;10.10;3.70;;;;;;;;;;5113209;28;20047;-75
2023/08/15 10:33:34;;;;;;;11.02;3.17;;;;;;;;;;5126007;27;20178;-72
2023/08/15 10:36:00;;;;;;;7.70;3.38;;;;;;;;;;5134589;27;20055;-74
2023/08/15 10:38:26;;;;;;;11.27;2.83;;;;;;;;;;5117916;27;20061;-74
2023/08/15 10:40:54;;;;;;;9.50;2.70;;;;;;;;;;5113214;28;20500;-74
2023/08/15 10:43:24;;;;;;;9.18;2.50;;;;;;;;;;5112418;28;20075;-74
2023/08/15 10:45:52;;;;;;;9.27;2.40;;;;;;;;;;5114965;27;20059;-74
2023/08/15 10:48:37;;;;;;;7.55;2.60;;;;;;;;;;5113292;28;20050;-77
2023/08/15 10:51:03;;;;;;;6.15;2.22;;;;;;;;;;5129560;27;20057;-74
2023/08/15 10:53:30;;;;;;;5.40;2.17;;;;;;;;;;5134383;27;20079;-74
2023/08/15 10:55:56;;;;;;;8.15;2.50;;;;;;;;;;5116309;27;20044;-76
2023/08/15 10:58:22;;;;;;;9.13;2.60;;;;;;;;;;5085322;28;20051;-74
2023/08/15 11:00:52;;;;;;;7.75;2.65;;;;;;;;;;5106437;28;20051;-75
2023/08/15 11:03:18;;;;;;;7.22;2.20;;;;;;;;;;5099393;28;20058;-77
2023/08/15 11:05:44;;;;;;;9.18;2.70;;;;;;;;;;5074105;28;20032;-75
2023/08/15 11:08:14;;;;;;;6.88;2.50;;;;;;;;;;5082550;28;20618;-76
2023/08/15 11:10:43;;;;;;;6.65;2.63;;;;;;;;;;5094662;28;20036;-75
2023/08/15 11:13:10;;;;;;;9.65;2.60;;;;;;;;;;5073529;28;20176;-75
2023/08/15 11:15:36;;;;;;;10.40;3.00;;;;;;;;;;5074106;28;20043;-77
2023/08/15 11:18:02;;;;;;;8.25;2.65;;;;;;;;;;5095577;28;20127;-75
2023/08/15 11:20:29;;;;;;;7.53;3.00;;;;;;;;;;5111254;28;20049;-75
2023/08/15 11:22:56;;;;;;;9.05;2.45;;;;;;;;;;5111800;28;20130;-75
2023/08/15 11:25:22;;;;;;;10.07;2.70;;;;;;;;;;5094341;28;20397;-78
2023/08/15 11:27:50;;;;;;;8.18;2.78;;;;;;;;;;5087541;28;20048;-75
2023/08/15 11:30:17;;;;;;;9.43;2.90;;;;;;;;;;5077261;28;20040;-75
2023/08/15 11:32:43;;;;;;;9.77;3.10;;;;;;;;;;5103820;28;20070;-74
2023/08/15 11:35:10;;;;;;;7.85;2.95;;;;;;;;;;5102622;28;20066;-77
2023/08/15 11:37:36;;;;;;;8.88;2.70;;;;;;;;;;5094254;28;20070;-75
2023/08/15 11:40:03;;;;;;;7.60;3.00;;;;;;;;;;5094674;28;20126;-75
2023/08/15 11:42:30;;;;;;;7.13;2.80;;;;;;;;;;5111041;28;20047;-75
2023/08/15 11:45:12;;;;;;;8.57;3.13;;;;;;;;;;5111215;28;20051;-75
2023/08/15 11:47:55;;;;;;;9.52;3.10;;;;;;;;;;5099192;28;20484;-77
2023/08/15 11:50:23;;;;;;;9.68;2.72;;;;;;;;;;5096338;28;20054;-76
2023/08/15 11:52:49;;;;;;;8.27;2.63;;;;;;;;;;5101193;28;20051;-76
2023/08/15 11:55:18;;;;;;;6.63;2.70;;;;;;;;;;5108172;28;20411;-74
2023/08/15 11:57:44;;;;;;;9.40;2.53;;;;;;;;;;5104528;28;20047;-75
2023/08/15 12:00:11;;;;;;;8.68;2.88;;;;;;;;;;5093907;28;20039;-75
2023/08/15 12:02:43;;;;;;;6.95;2.80;;;;;;;;;;5094493;28;20043;-75
2023/08/15 12:05:13;;;;;;;7.88;2.55;;;;;;;;;;5109470;28;20058;-76
2023/08/15 12:07:39;;;;;;;9.85;2.75;;;;;;;;;;5099866;28;20501;-74
2023/08/15 12:10:06;;;;;;;7.80;2.63;;;;;;;;;;5085264;28;20078;-74
2023/08/15 12:12:40;;;;;;;8.25;2.70;;;;;;;;;;5093655;28;20064;-75
2023/08/15 12:15:07;;;;;;;9.00;2.85;;;;;;;;;;5085116;28;20134;-79
2023/08/15 12:17:33;;;;;;;9.05;2.78;;;;;;;;;;5110198;28;20400;-76
2023/08/15 12:19:59;;;;;;;9.13;2.90;;;;;;;;;;5110297;28;20377;-76
2023/08/15 12:22:26;;;;;;;6.07;2.58;;;;;;;;;;5102148;28;20071;-78
2023/08/15 12:24:52;;;;;;;8.40;3.20;;;;;;;;;;5094101;28;20047;-75
2023/08/15 12:27:18;;;;;;;7.07;2.75;;;;;;;;;;5111223;28;20116;-75
2023/08/15 12:29:44;;;;;;;9.00;2.80;;;;;;;;;;5091374;28;20062;-75
2023/08/15 12:32:10;;;;;;;8.10;3.00;;;;;;;;;;5102178;28;20040;-75
2023/08/15 12:34:36;;;;;;;6.78;2.70;;;;;;;;;;5108188;28;20059;-75
2023/08/15 12:37:02;;;;;;;8.32;2.97;;;;;;;;;;5095076;28;20131;-75
2023/08/15 12:39:28;;;;;;;7.03;3.08;;;;;;;;;;5090151;28;20048;-77
2023/08/15 12:41:54;;;;;;;6.45;2.97;;;;;;;;;;5073103;28;20516;-76
2023/08/15 12:44:20;;;;;;;8.00;3.10;;;;;;;;;;5109697;28;20056;-75
2023/08/15 12:46:46;;;;;;;8.38;3.33;;;;;;;;;;5110345;28;20406;-75
2023/08/15 12:49:12;;;;;;;8.20;3.30;;;;;;;;;;5094534;28;20087;-75
2023/08/15 12:51:40;;;;;;;11.55;4.13;;;;;;;;;;5110968;28;20070;-75
2023/08/15 12:54:06;;;;;;;6.78;3.47;;;;;;;;;;5111302;28;20052;-75
2023/08/15 12:56:32;;;;;;;8.45;3.28;;;;;;;;;;5110231;28;20053;-75
2023/08/15 12:58:58;;;;;;;9.18;3.65;;;;;;;;;;5072909;28;20082;-75
2023/08/15 13:01:24;;;;;;;9.52;3.90;;;;;;;;;;5109305;28;20396;-75
2023/08/15 13:03:51;;;;;;;8.60;4.03;;;;;;;;;;5073789;28;20074;-75
2023/08/15 13:06:17;;;;;;;10.52;3.80;;;;;;;;;;5091002;28;20036;-75
2023/08/15 13:08:44;;;;;;;11.13;4.07;;;;;;;;;;5090104;28;20056;-75
2023/08/15 13:11:10;;;;;;;10.88;4.05;;;;;;;;;;5102155;28;20050;-75
2023/08/15 13:13:36;;;;;;;11.15;3.85;;;;;;;;;;5092957;28;20040;-74
2023/08/15 13:16:03;;;;;;;11.90;4.40;;;;;;;;;;5110883;28;20048;-76
2023/08/15 13:18:29;;;;;;;8.95;4.05;;;;;;;;;;5111097;28;20086;-78
2023/08/15 13:20:56;;;;;;;11.02;4.65;;;;;;;;;;5094087;28;20051;-76
2023/08/15 13:23:22;;;;;;;8.75;4.28;;;;;;;;;;5091840;28;20094;-77
2023/08/15 13:25:48;;;;;;;8.40;4.28;;;;;;;;;;5090254;28;20051;-75
2023/08/15 13:28:14;;;;;;;9.88;4.20;;;;;;;;;;5092718;28;20044;-75
2023/08/15 13:30:40;;;;;;;11.82;4.93;;;;;;;;;;5093330;28;20118;-76
2023/08/15 13:33:06;;;;;;;10.40;5.05;;;;;;;;;;5081626;28;20051;-75
2023/08/15 13:35:32;;;;;;;10.32;4.97;;;;;;;;;;5114619;28;20047;-78
2023/08/15 13:37:59;;;;;;;11.57;5.00;;;;;;;;;;5100272;28;20047;-75
2023/08/15 13:40:25;;;;;;;11.38;5.18;;;;;;;;;;5060879;28;20040;-75
2023/08/15 13:42:51;;;;;;;9.98;4.32;;;;;;;;;;5093455;28;20591;-76
2023/08/15 13:45:17;;;;;;;8.45;5.22;;;;;;;;;;5095746;28;20134;-75
2023/08/15 13:47:43;;;;;;;12.48;5.18;;;;;;;;;;5094013;28;20105;-75
2023/08/15 13:50:10;;;;;;;10.93;5.15;;;;;;;;;;5094425;28;20538;-75
2023/08/15 13:52:36;;;;;;;11.02;4.47;;;;;;;;;;5094279;28;20106;-77
2023/08/15 13:55:04;;;;;;;11.20;5.18;;;;;;;;;;5076820;28;20052;-75
2023/08/15 13:57:32;;;;;;;8.73;4.97;;;;;;;;;;5071034;28;20043;-75
2023/08/15 13:59:58;;;;;;;10.93;5.43;;;;;;;;;;5113271;28;20044;-75
2023/08/15 14:02:24;;;;;;;9.85;5.05;;;;;;;;;;5113925;28;20465;-75
2023/08/15 14:04:50;;;;;;;11.32;4.90;;;;;;;;;;5093283;28;20040;-75
2023/08/15 14:07:16;;;;;;;10.07;4.78;;;;;;;;;;5094173;28;20091;-74
2023/08/15 14:09:42;;;;;;;11.70;4.90;;;;;;;;;;5093811;28;20047;-75
2023/08/15 14:12:08;;;;;;;10.07;4.65;;;;;;;;;;5093596;28;20044;-75
2023/08/15 14:14:35;;;;;;;8.48;4.72;;;;;;;;;;5100343;28;20496;-78
2023/08/15 14:17:01;;;;;;;9.48;5.22;;;;;;;;;;5114019;28;20496;-75
2023/08/15 14:19:27;;;;;;;9.20;4.50;;;;;;;;;;5114272;28;20039;-75
2023/08/15 14:21:53;;;;;;;11.98;4.50;;;;;;;;;;5113309;28;20432;-75
2023/08/15 14:24:20;;;;;;;10.23;5.63;;;;;;;;;;5104872;28;20128;-75
2023/08/15 14:26:46;;;;;;;10.10;4.68;;;;;;;;;;5111180;28;20052;-75
2023/08/15 14:29:12;;;;;;;9.77;4.32;;;;;;;;;;5099051;28;20051;-78
2023/08/15 14:31:39;;;;;;;10.98;4.82;;;;;;;;;;5097935;28;20059;-77
2023/08/15 14:34:05;;;;;;;10.40;4.63;;;;;;;;;;5096806;28;20044;-76
2023/08/15 14:36:31;;;;;;;9.23;4.22;;;;;;;;;;5103824;28;20055;-77
2023/08/15 14:38:57;;;;;;;9.00;4.35;;;;;;;;;;5095094;28;20617;-78